Time;durP1;ratioP1;P1;durP2;ratioP2;P2;SDS_P1;SDS_P2;PMS_P1;PMS_P2;Temp;Humidity;BMP_temperature;BMP_pressure;BME280_temperature;BME280_humidity;BME280_pressure;Samples;Min_cycle;Max_cycle;Signal;HPM_P1;HPM_P2
2023/10/10 00:00:27;;;;;;;4.83;2.70;;;21.10;62.70;20.30;96985.00;;;;5113888;28;20563;-84
2023/10/10 00:02:55;;;;;;;7.13;3.13;;;21.10;62.60;20.30;96983.00;;;;5088720;28;20662;-84
2023/10/10 00:05:33;;;;;;;4.17;2.40;;;21.10;62.60;20.30;96985.00;;;;5112262;28;20616;-84
2023/10/10 00:08:05;;;;;;;4.87;2.30;;;21.10;62.60;20.20;96990.00;;;;5112793;28;20568;-84
2023/10/10 00:10:34;;;;;;;7.40;2.77;;;21.00;63.20;20.20;96988.00;;;;5114396;28;20202;-83
2023/10/10 00:13:06;;;;;;;4.77;2.47;;;21.00;62.60;20.20;96987.00;;;;5114155;28;20217;-83
2023/10/10 00:15:34;;;;;;;4.87;2.27;;;21.00;62.70;20.10;96978.00;;;;5111339;28;20222;-83
2023/10/10 00:18:03;;;;;;;4.63;2.83;;;20.90;62.60;20.10;96978.00;;;;5114073;28;20244;-84
2023/10/10 00:20:39;;;;;;;3.80;2.67;;;20.90;62.70;20.10;96980.00;;;;5105457;28;20251;-84
2023/10/10 00:23:10;;;;;;;2.93;2.30;;;20.90;62.80;20.00;96980.00;;;;5113971;28;20212;-84
2023/10/10 00:25:38;;;;;;;3.43;2.17;;;20.80;62.80;20.00;96981.00;;;;5114269;28;20624;-84
2023/10/10 00:28:17;;;;;;;4.67;2.10;;;20.80;62.80;19.90;96984.00;;;;5107210;28;20202;-84
2023/10/10 00:30:45;;;;;;;4.83;2.60;;;20.80;62.90;19.80;96978.00;;;;5116875;28;20198;-84
2023/10/10 00:33:18;;;;;;;4.90;2.77;;;20.70;62.90;19.80;96976.00;;;;5109083;28;20206;-83
2023/10/10 00:35:47;;;;;;;9.67;3.10;;;20.70;63.10;19.80;96976.00;;;;5097775;28;20654;-84
2023/10/10 00:38:24;;;;;;;7.23;2.70;;;20.60;63.10;19.80;96974.00;;;;5116227;28;20277;-84
2023/10/10 00:40:51;;;;;;;4.57;2.43;;;20.60;63.10;19.70;96975.00;;;;5114399;28;20745;-84
2023/10/10 00:43:24;;;;;;;5.43;2.20;;;20.60;63.30;19.70;96976.00;;;;5116211;28;20207;-84
2023/10/10 00:45:57;;;;;;;4.93;2.43;;;20.50;64.10;19.70;96969.00;;;;5098706;28;20237;-83
2023/10/10 00:48:29;;;;;;;7.10;2.83;;;20.50;63.40;19.70;96968.00;;;;5116749;28;20265;-83
2023/10/10 00:51:05;;;;;;;6.20;2.20;;;20.50;63.50;19.60;96969.00;;;;5109504;28;20267;-83
2023/10/10 00:53:35;;;;;;;6.53;2.60;;;20.50;63.60;19.60;96964.00;;;;5118421;27;20202;-83
2023/10/10 00:56:06;;;;;;;7.03;2.73;;;20.40;63.60;19.60;96966.00;;;;5105412;28;20214;-83
2023/10/10 00:58:37;;;;;;;7.67;2.93;;;20.40;63.70;19.60;96955.00;;;;5118193;28;20294;-83
2023/10/10 01:01:08;;;;;;;6.60;3.30;;;20.40;63.80;19.60;96954.00;;;;5102712;28;20225;-83
2023/10/10 01:03:36;;;;;;;5.67;2.90;;;20.30;63.70;19.50;96953.00;;;;5118753;28;20597;-83
2023/10/10 01:06:07;;;;;;;5.17;2.43;;;20.30;63.80;19.50;96963.00;;;;5110194;27;20283;-83
2023/10/10 01:08:55;;;;;;;5.73;2.90;;;20.30;63.80;19.50;96958.00;;;;5118611;28;20222;-83
2023/10/10 01:11:23;;;;;;;5.10;2.53;;;20.30;64.10;19.50;96950.00;;;;5118168;28;20206;-83
2023/10/10 01:13:53;;;;;;;6.27;3.20;;;20.30;63.90;19.50;96961.00;;;;5117462;28;20200;-83
2023/10/10 01:16:24;;;;;;;7.83;3.23;;;20.20;63.90;19.40;96968.00;;;;5110384;28;20221;-84
2023/10/10 01:18:57;;;;;;;6.13;2.87;;;20.20;63.90;19.40;96953.00;;;;5113045;28;20214;-83
2023/10/10 01:21:43;;;;;;;5.13;2.50;;;20.20;64.00;19.40;96955.00;;;;5109553;28;20236;-84
2023/10/10 01:24:12;;;;;;;8.73;2.90;;;20.20;64.10;19.40;96952.00;;;;5104406;28;20263;-83
2023/10/10 01:26:44;;;;;;;5.63;2.73;;;20.10;64.00;19.40;96952.00;;;;5102003;28;20223;-83
2023/10/10 01:29:21;;;;;;;5.37;2.43;;;20.10;64.10;19.40;96950.00;;;;5118751;28;20206;-83
2023/10/10 01:31:51;;;;;;;7.70;3.10;;;20.10;64.10;19.30;96955.00;;;;5116053;28;20211;-83
2023/10/10 01:34:31;;;;;;;6.50;2.87;;;20.10;64.20;19.30;96952.00;;;;5094955;28;20191;-83
2023/10/10 01:37:20;;;;;;;7.70;2.50;;;20.10;64.30;19.30;96951.00;;;;5108161;28;20199;-84
2023/10/10 01:40:14;;;;;;;8.50;3.07;;;20.00;64.50;19.30;96949.00;;;;5117968;28;20761;-83
2023/10/10 01:42:45;;;;;;;6.87;3.00;;;20.00;64.50;19.30;96951.00;;;;5117002;28;20229;-84
2023/10/10 01:45:18;;;;;;;4.67;2.90;;;20.00;64.30;19.20;96947.00;;;;5114697;28;20250;-83
2023/10/10 01:47:56;;;;;;;8.20;3.10;;;20.00;64.40;19.20;96945.00;;;;5100954;28;20209;-83
2023/10/10 01:50:25;;;;;;;5.57;2.73;;;20.00;64.40;19.20;96952.00;;;;5112426;28;20745;-83
2023/10/10 01:52:56;;;;;;;7.10;3.13;;;19.90;64.40;19.20;96948.00;;;;5118361;27;20209;-83
2023/10/10 01:55:24;;;;;;;8.07;2.67;;;19.90;64.50;19.20;96945.00;;;;5103509;28;20222;-83
2023/10/10 01:57:52;;;;;;;4.83;2.30;;;19.90;64.50;19.20;96952.00;;;;5117367;28;20740;-83
2023/10/10 02:00:26;;;;;;;4.17;2.37;;;19.90;64.60;19.20;96942.00;;;;5121160;28;20268;-83
2023/10/10 02:02:55;;;;;;;3.73;2.50;;;19.90;64.80;19.10;96940.00;;;;5112072;28;20224;-83
2023/10/10 02:05:32;;;;;;;5.63;2.40;;;19.90;64.80;19.10;96944.00;;;;5110816;28;20624;-84
2023/10/10 02:08:03;;;;;;;6.67;2.43;;;19.90;64.90;19.10;96943.00;;;;5115868;28;20199;-83
2023/10/10 02:10:32;;;;;;;5.23;2.60;;;19.80;64.80;19.10;96947.00;;;;5110833;28;20205;-82
2023/10/10 02:13:00;;;;;;;5.47;2.60;;;19.80;64.70;19.10;96947.00;;;;5107642;28;20568;-83
2023/10/10 02:15:32;;;;;;;4.80;2.30;;;19.90;64.80;19.10;96945.00;;;;5121775;28;20225;-83
2023/10/10 02:18:04;;;;;;;5.23;2.20;;;19.80;64.60;19.10;96939.00;;;;5110490;28;20233;-83
2023/10/10 02:23:31;;;;;;;6.63;2.50;;;19.80;64.50;19.00;96938.00;;;;5099191;28;20281;-83
2023/10/10 02:26:03;;;;;;;6.67;2.77;;;19.80;64.30;18.90;96938.00;;;;5117445;28;20238;-83
2023/10/10 02:28:47;;;;;;;3.97;2.03;;;19.80;64.30;18.80;96941.00;;;;5108409;28;20207;-83
2023/10/10 02:31:16;;;;;;;6.10;2.67;;;19.70;64.20;18.80;96939.00;;;;5107725;28;20199;-84
2023/10/10 02:33:55;;;;;;;4.27;2.50;;;19.70;64.30;18.70;96939.00;;;;5109933;28;20196;-83
2023/10/10 02:36:30;;;;;;;6.97;2.03;;;19.60;65.10;18.70;96941.00;;;;5120726;28;20210;-83
2023/10/10 02:39:18;;;;;;;4.67;2.07;;;19.60;64.30;18.60;96942.00;;;;5120056;28;20200;-83
2023/10/10 02:41:49;;;;;;;5.03;2.07;;;19.50;64.40;18.60;96952.00;;;;5121346;27;20239;-83
2023/10/10 02:44:38;;;;;;;4.33;2.00;;;19.50;64.40;18.50;96951.00;;;;5117180;28;20254;-83
2023/10/10 02:47:05;;;;;;;6.00;2.70;;;19.40;64.40;18.50;96949.00;;;;5091617;28;20205;-84
2023/10/10 02:49:37;;;;;;;4.83;2.17;;;19.40;64.50;18.40;96948.00;;;;5103292;28;20195;-83
2023/10/10 02:52:06;;;;;;;5.90;2.53;;;19.30;64.50;18.30;96942.00;;;;5097752;28;20609;-84
2023/10/10 02:54:37;;;;;;;3.13;2.43;;;19.30;64.60;18.30;96947.00;;;;5105557;28;20206;-83
2023/10/10 02:59:50;;;;;;;3.83;2.17;;;19.20;64.70;18.20;96941.00;;;;5113216;28;20675;-84
2023/10/10 03:02:20;;;;;;;4.73;2.10;;;19.20;64.80;18.20;96949.00;;;;5107755;28;20706;-84
2023/10/10 03:05:05;;;;;;;4.63;2.20;;;19.10;64.80;18.10;96947.00;;;;5111618;28;20286;-83
2023/10/10 03:07:35;;;;;;;4.17;2.43;;;19.10;64.90;18.10;96948.00;;;;5107991;28;20284;-84
2023/10/10 03:10:23;;;;;;;5.13;2.63;;;19.00;64.90;18.00;96935.00;;;;5099000;28;20277;-83
2023/10/10 03:12:52;;;;;;;3.80;2.13;;;19.00;64.90;17.90;96941.00;;;;5095813;28;20282;-84
2023/10/10 03:15:30;;;;;;;4.50;2.40;;;18.90;64.90;17.90;96952.00;;;;5093605;28;20235;-84
2023/10/10 03:20:51;;;;;;;5.83;1.97;;;18.80;64.90;17.80;96952.00;;;;5099492;28;20200;-84
2023/10/10 03:23:32;;;;;;;4.07;2.50;;;18.80;65.00;17.70;96957.00;;;;5103473;28;20309;-84
2023/10/10 03:26:06;;;;;;;4.23;2.20;;;18.70;65.00;17.60;96947.00;;;;5112847;28;20222;-84
2023/10/10 03:28:35;;;;;;;3.60;2.20;;;18.70;65.10;17.60;96959.00;;;;5110875;28;20210;-84
2023/10/10 03:31:08;;;;;;;6.23;2.17;;;18.60;65.10;17.60;96961.00;;;;5110851;28;20199;-84
2023/10/10 03:33:37;;;;;;;4.13;2.30;;;18.60;65.20;17.50;96956.00;;;;5096901;27;20267;-83
2023/10/10 03:36:30;;;;;;;4.90;2.40;;;18.50;65.20;17.50;96958.00;;;;5112194;28;20232;-84
2023/10/10 05:23:51;;;;;;;2.40;2.13;;;17.10;66.90;16.10;96966.00;;;;5098520;28;20881;-83
2023/10/10 05:26:20;;;;;;;4.43;2.50;;;17.10;66.90;16.10;96971.00;;;;5110301;28;20690;-82
2023/10/10 05:28:47;;;;;;;5.13;2.00;;;17.10;67.80;16.10;96977.00;;;;5114181;28;20199;-83
2023/10/10 05:31:19;;;;;;;6.77;2.77;;;17.10;67.00;16.00;96975.00;;;;5114450;28;20203;-83
2023/10/10 05:33:48;;;;;;;3.87;2.30;;;17.10;67.00;16.00;96977.00;;;;5108227;28;20281;-83
2023/10/10 05:36:18;;;;;;;4.90;2.20;;;17.10;67.70;16.00;96978.00;;;;5114175;28;20225;-83
2023/10/10 05:38:48;;;;;;;8.10;2.90;;;17.10;67.70;16.00;96973.00;;;;5106497;28;20206;-83
2023/10/10 05:41:18;;;;;;;5.57;3.07;;;17.10;66.90;16.00;96972.00;;;;5097054;28;20291;-83
2023/10/10 05:43:49;;;;;;;3.53;2.27;;;17.10;67.00;16.00;96980.00;;;;5086195;28;20233;-83
2023/10/10 05:46:18;;;;;;;4.33;2.17;;;17.10;66.90;16.00;96973.00;;;;5112060;28;20250;-83
2023/10/10 05:48:46;;;;;;;6.03;2.33;;;17.10;67.00;16.00;96973.00;;;;5113161;28;20196;-83
2023/10/10 05:51:13;;;;;;;6.00;2.53;;;17.10;67.00;16.00;96983.00;;;;5106897;28;20248;-83
2023/10/10 05:53:42;;;;;;;5.67;2.87;;;17.00;67.00;16.00;96978.00;;;;5107450;28;20244;-84
2023/10/10 05:56:16;;;;;;;3.97;2.20;;;17.10;67.10;15.90;96976.00;;;;5112500;28;20237;-83
2023/10/10 05:58:44;;;;;;;5.93;2.30;;;17.10;67.20;15.90;96979.00;;;;5105166;28;20206;-83
2023/10/10 06:01:13;;;;;;;5.20;2.20;;;17.10;67.20;15.90;96979.00;;;;5113369;27;20206;-84
2023/10/10 06:03:42;;;;;;;5.63;2.70;;;17.00;67.20;15.90;96976.00;;;;5103768;28;20314;-83
2023/10/10 06:06:12;;;;;;;5.57;2.73;;;17.00;67.30;15.90;96978.00;;;;5073506;28;20345;-83
2023/10/10 06:08:43;;;;;;;4.20;2.93;;;17.00;67.50;15.90;96975.00;;;;5085723;28;20186;-84
2023/10/10 06:11:13;;;;;;;5.47;2.70;;;17.00;67.70;15.90;96975.00;;;;5123363;27;20195;-82
2023/10/10 06:13:43;;;;;;;4.93;2.80;;;17.00;67.80;16.00;96968.00;;;;5108032;27;20229;-82
2023/10/10 06:16:14;;;;;;;4.00;2.77;;;17.00;68.00;16.00;96974.00;;;;5111766;28;20799;-82
2023/10/10 06:18:44;;;;;;;9.77;3.37;;;17.00;68.10;16.00;96972.00;;;;5104988;28;20733;-82
2023/10/10 06:21:14;;;;;;;6.27;3.10;;;17.10;68.40;16.00;96974.00;;;;5098499;28;20245;-82
2023/10/10 06:23:44;;;;;;;5.27;2.60;;;17.10;68.50;16.00;96978.00;;;;5122655;28;20228;-81
2023/10/10 06:26:12;;;;;;;5.53;2.53;;;17.10;68.70;16.10;96982.00;;;;5122252;28;20698;-82
2023/10/10 06:28:47;;;;;;;5.93;3.30;;;17.10;68.80;16.10;96981.00;;;;5101945;28;20233;-83
2023/10/10 06:31:19;;;;;;;7.50;3.40;;;17.10;69.10;16.10;96981.00;;;;5112444;28;20675;-83
2023/10/10 06:33:49;;;;;;;7.33;2.70;;;17.10;69.30;16.20;96983.00;;;;5113041;28;20202;-83
2023/10/10 06:36:35;;;;;;;6.13;2.97;;;17.20;69.40;16.20;96976.00;;;;5108737;28;20215;-83
2023/10/10 06:39:32;;;;;;;6.90;4.00;;;17.20;69.60;16.30;96974.00;;;;5110182;28;20199;-82
2023/10/10 06:41:59;;;;;;;5.60;2.97;;;17.20;69.70;16.30;96988.00;;;;5112946;28;20237;-83
2023/10/10 06:44:34;;;;;;;5.77;2.73;;;17.30;69.70;16.40;96978.00;;;;5113048;28;20823;-83
2023/10/10 06:47:08;;;;;;;11.47;3.37;;;17.30;69.90;16.40;96976.00;;;;5113088;27;20255;-83
2023/10/10 06:49:53;;;;;;;5.17;3.00;;;17.40;70.10;16.50;96983.00;;;;5104835;28;20666;-83
2023/10/10 06:52:23;;;;;;;5.20;3.13;;;17.40;70.10;16.50;96984.00;;;;5105141;28;20203;-83
2023/10/10 06:54:57;;;;;;;5.77;3.13;;;17.50;70.10;16.60;96984.00;;;;5092238;27;20278;-83
2023/10/10 06:57:39;;;;;;;5.27;3.10;;;17.50;70.30;16.60;96996.00;;;;5103535;27;20199;-82
2023/10/10 07:00:20;;;;;;;5.80;3.83;;;17.50;70.30;16.70;96989.00;;;;5095552;28;20213;-82
2023/10/10 07:02:49;;;;;;;5.90;3.73;;;17.60;70.40;16.80;96988.00;;;;5084974;28;20220;-83
2023/10/10 07:05:19;;;;;;;9.57;3.40;;;17.60;70.50;16.80;96998.00;;;;5089297;28;20247;-83
2023/10/10 07:07:52;;;;;;;8.10;3.30;;;17.70;70.60;16.90;96990.00;;;;5101748;28;20579;-82
2023/10/10 07:10:25;;;;;;;8.13;3.57;;;17.70;70.70;17.00;97000.00;;;;5103729;28;20238;-83
2023/10/10 07:12:57;;;;;;;7.27;3.20;;;17.80;71.60;17.00;97004.00;;;;5097169;28;20279;-82
2023/10/10 07:15:25;;;;;;;5.47;3.30;;;17.80;70.90;17.10;96990.00;;;;5087769;28;20215;-82
2023/10/10 07:18:04;;;;;;;6.77;3.07;;;17.90;71.00;17.20;97001.00;;;;5106359;28;20214;-82
2023/10/10 07:23:20;;;;;;;5.27;3.23;;;18.00;71.00;17.30;97004.00;;;;5111914;28;20755;-83
2023/10/10 07:26:04;;;;;;;4.57;3.07;;;18.10;71.20;17.40;97008.00;;;;5101999;28;20268;-83
2023/10/10 07:28:37;;;;;;;5.73;3.70;;;18.20;71.60;17.50;97002.00;;;;5100741;28;20248;-83
2023/10/10 07:31:17;;;;;;;6.13;3.27;;;18.30;71.10;17.60;97014.00;;;;5105079;28;20221;-83
2023/10/10 07:33:54;;;;;;;8.43;3.23;;;18.30;71.10;17.70;97023.00;;;;5096672;28;20225;-83
2023/10/10 07:36:24;;;;;;;7.60;3.60;;;18.40;71.20;17.80;97032.00;;;;5095529;28;20222;-82
2023/10/10 07:39:32;;;;;;;5.87;3.20;;;18.50;71.30;17.90;97033.00;;;;5114831;28;20266;-84
2023/10/10 07:41:46;;;;;;;6.63;2.80;;;18.60;71.30;18.00;97035.00;;;;5113103;28;20545;-83
2023/10/10 07:44:16;;;;;;;7.57;3.83;;;18.70;71.30;18.10;97020.00;;;;5102705;28;20272;-84
2023/10/10 07:47:07;;;;;;;5.57;3.10;;;18.80;71.10;18.20;97022.00;;;;5103619;28;20222;-84
2023/10/10 07:49:31;;;;;;;10.07;3.27;;;18.90;70.90;18.20;97025.00;;;;5109053;28;20555;-83
2023/10/10 07:52:02;;;;;;;9.17;3.37;;;19.00;71.00;18.30;97024.00;;;;5105232;28;20210;-83
2023/10/10 07:54:38;;;;;;;7.10;3.67;;;19.00;71.10;18.50;97029.00;;;;5103009;28;20196;-83
2023/10/10 07:57:17;;;;;;;6.23;2.63;;;19.10;71.40;18.50;97035.00;;;;5111689;28;20194;-83
2023/10/10 07:59:44;;;;;;;6.53;3.20;;;19.20;71.60;18.70;97031.00;;;;5102549;28;20291;-83
2023/10/10 08:02:24;;;;;;;5.63;2.70;;;19.30;71.70;18.80;97032.00;;;;5092645;28;20203;-83
2023/10/10 08:04:52;;;;;;;6.23;2.63;;;19.40;72.50;18.90;97032.00;;;;5111450;28;20210;-85
2023/10/10 08:07:19;;;;;;;7.90;2.60;;;19.50;71.70;19.00;97041.00;;;;5102553;27;20206;-84
2023/10/10 08:09:48;;;;;;;7.57;3.57;;;19.70;71.50;19.10;97042.00;;;;5111060;28;20203;-82
2023/10/10 08:12:17;;;;;;;8.47;3.43;;;19.70;71.40;19.20;97038.00;;;;5113498;28;20203;-83
2023/10/10 08:14:44;;;;;;;6.63;3.00;;;19.80;71.20;19.30;97042.00;;;;5111066;28;20215;-84
2023/10/10 08:17:19;;;;;;;4.50;2.43;;;19.90;70.80;19.40;97043.00;;;;5107923;28;20210;-82
2023/10/10 08:19:51;;;;;;;7.33;3.37;;;20.00;70.70;19.50;97044.00;;;;5107876;28;20207;-82
2023/10/10 08:22:25;;;;;;;7.17;3.00;;;20.20;70.80;19.70;97043.00;;;;5090058;28;20201;-82
2023/10/10 08:24:52;;;;;;;6.57;3.03;;;20.20;70.70;19.80;97040.00;;;;5112277;28;20220;-82
2023/10/10 08:27:22;;;;;;;5.37;2.90;;;20.30;70.50;19.90;97046.00;;;;5106448;28;20194;-83
2023/10/10 08:29:50;;;;;;;6.50;2.90;;;20.50;70.20;20.00;97045.00;;;;5103988;28;20202;-83
2023/10/10 08:32:17;;;;;;;8.17;3.10;;;20.50;70.00;20.10;97048.00;;;;5099215;28;20282;-83
2023/10/10 08:34:45;;;;;;;5.73;2.70;;;20.70;70.20;20.20;97051.00;;;;5115276;28;20198;-83
2023/10/10 08:37:15;;;;;;;4.47;2.57;;;20.70;69.70;20.30;97054.00;;;;5100698;28;20285;-82
2023/10/10 08:39:42;;;;;;;7.87;3.10;;;20.80;69.50;20.30;97052.00;;;;5114967;28;20202;-83
2023/10/10 08:42:14;;;;;;;5.63;2.93;;;20.90;69.50;20.40;97052.00;;;;5106810;28;20277;-82
2023/10/10 08:44:48;;;;;;;5.70;2.97;;;21.00;69.60;20.50;97052.00;;;;5101341;28;20223;-82
2023/10/10 08:47:19;;;;;;;6.07;2.57;;;21.10;69.60;20.60;97047.00;;;;5104286;28;20206;-83
2023/10/10 08:49:47;;;;;;;7.27;3.03;;;21.20;69.50;20.70;97054.00;;;;5095522;28;20290;-82
2023/10/10 08:52:19;;;;;;;5.93;2.87;;;21.30;69.50;20.80;97049.00;;;;5104932;28;20194;-82
2023/10/10 08:54:51;;;;;;;7.10;2.63;;;21.40;69.20;20.90;97053.00;;;;5094911;28;20210;-82
2023/10/10 08:57:27;;;;;;;7.30;3.20;;;21.50;69.00;21.00;97054.00;;;;5107033;28;20259;-82
2023/10/10 08:59:55;;;;;;;5.93;2.80;;;21.60;68.60;21.20;97058.00;;;;5103515;28;20200;-82
2023/10/10 09:02:23;;;;;;;4.13;2.83;;;21.70;68.30;21.30;97051.00;;;;5108901;28;20198;-83
2023/10/10 09:04:50;;;;;;;8.77;2.80;;;21.80;67.60;21.40;97053.00;;;;5113177;28;20228;-83
2023/10/10 09:07:23;;;;;;;6.43;3.00;;;21.90;66.90;21.50;97050.00;;;;5110337;28;20727;-83
2023/10/10 09:10:04;;;;;;;8.10;2.37;;;21.90;66.50;21.50;97055.00;;;;5106193;28;20671;-83
2023/10/10 09:12:34;;;;;;;5.37;3.00;;;22.00;65.50;21.60;97053.00;;;;5114443;28;20198;-83
2023/10/10 09:15:16;;;;;;;4.27;2.13;;;22.10;65.80;21.80;97051.00;;;;5114093;28;20218;-83
2023/10/10 09:17:45;;;;;;;5.27;2.60;;;22.20;65.80;21.90;97057.00;;;;5111568;28;20220;-83
2023/10/10 09:20:18;;;;;;;5.23;2.57;;;22.30;65.70;22.00;97050.00;;;;5094582;28;20195;-83
2023/10/10 09:22:51;;;;;;;6.37;2.77;;;22.40;65.50;22.10;97057.00;;;;5111342;28;20260;-83
2023/10/10 09:25:25;;;;;;;7.70;3.53;;;22.50;64.90;22.20;97055.00;;;;5107255;28;20230;-83
2023/10/10 09:28:03;;;;;;;4.57;3.10;;;22.70;64.50;22.30;97063.00;;;;5105726;28;20211;-83
2023/10/10 09:30:34;;;;;;;4.57;2.60;;;22.80;64.70;22.40;97061.00;;;;5114518;28;20237;-83
2023/10/10 09:33:13;;;;;;;3.53;2.30;;;22.90;64.70;22.60;97054.00;;;;5099691;28;20596;-83
2023/10/10 09:35:45;;;;;;;6.20;2.63;;;23.00;64.40;22.70;97054.00;;;;5100780;28;20250;-83
2023/10/10 09:38:20;;;;;;;5.67;2.80;;;23.10;63.80;22.80;97058.00;;;;5110658;28;20269;-84
2023/10/10 09:40:58;;;;;;;5.77;2.20;;;23.20;63.70;22.90;97062.00;;;;5093931;28;21036;-84
2023/10/10 09:43:36;;;;;;;6.03;2.80;;;23.30;62.80;23.00;97066.00;;;;5104026;28;20225;-83
2023/10/10 09:46:11;;;;;;;5.20;2.60;;;23.40;62.20;23.10;97071.00;;;;5104313;28;20270;-83
2023/10/10 09:54:16;;;;;;;6.90;3.17;;;23.70;62.10;23.40;97069.00;;;;5097966;28;20223;-83
2023/10/10 09:56:48;;;;;;;4.73;2.43;;;23.80;61.90;23.50;97056.00;;;;5113195;28;20309;-83
2023/10/10 09:59:20;;;;;;;5.20;2.80;;;23.90;60.70;23.60;97071.00;;;;5104605;28;20203;-84
2023/10/10 10:01:59;;;;;;;6.63;2.83;;;24.00;61.00;23.70;97068.00;;;;5114799;28;20206;-84
2023/10/10 10:04:37;;;;;;;5.53;2.80;;;24.10;59.90;23.80;97066.00;;;;5114387;28;20229;-84
2023/10/10 10:07:41;;;;;;;4.17;2.90;;;24.10;59.60;23.90;97070.00;;;;5097392;28;20546;-85
2023/10/10 10:10:34;;;;;;;7.13;2.90;;;24.30;59.30;24.00;97064.00;;;;5101350;28;20280;-84
2023/10/10 10:13:24;;;;;;;4.97;2.70;;;24.40;58.30;24.00;97064.00;;;;5104625;28;20194;-83
2023/10/10 10:16:15;;;;;;;6.63;2.80;;;24.40;58.50;24.10;97060.00;;;;5116570;28;20223;-83
2023/10/10 10:18:52;;;;;;;5.20;3.20;;;24.60;58.00;24.20;97067.00;;;;5108761;28;20213;-84
2023/10/10 10:21:28;;;;;;;4.47;2.90;;;24.60;57.50;24.30;97068.00;;;;5090823;28;20284;-82
2023/10/10 10:24:15;;;;;;;5.60;2.90;;;24.70;58.30;24.40;97062.00;;;;5103751;28;20222;-82
2023/10/10 10:26:44;;;;;;;5.33;2.83;;;24.80;57.30;24.50;97063.00;;;;5112581;28;20244;-83
2023/10/10 10:29:29;;;;;;;6.70;2.77;;;24.90;56.90;24.60;97064.00;;;;5111781;28;20222;-83
2023/10/10 10:32:07;;;;;;;5.73;3.23;;;24.90;56.00;24.70;97067.00;;;;5108346;28;20206;-83
2023/10/10 10:34:36;;;;;;;3.67;2.73;;;25.00;55.80;24.80;97059.00;;;;5100843;28;20206;-83
2023/10/10 10:37:12;;;;;;;4.90;2.60;;;25.10;55.70;24.90;97060.00;;;;5112072;28;20573;-83
2023/10/10 10:40:23;;;;;;;4.97;2.80;;;25.20;55.70;24.90;97060.00;;;;5111230;27;20219;-83
2023/10/10 10:42:34;;;;;;;4.37;2.80;;;25.20;55.30;25.00;97062.00;;;;5103296;28;20670;-83
2023/10/10 10:45:33;;;;;;;7.40;3.07;;;25.30;55.60;25.00;97062.00;;;;5105643;28;20380;-83
2023/10/10 10:48:06;;;;;;;8.03;3.53;;;25.40;54.90;25.10;97066.00;;;;5102996;28;20198;-83
2023/10/10 10:50:45;;;;;;;8.47;2.77;;;25.40;55.40;25.10;97063.00;;;;5103247;28;20576;-83
2023/10/10 10:53:33;;;;;;;5.87;2.60;;;25.50;55.30;25.20;97063.00;;;;5104801;28;20270;-83
2023/10/10 10:59:12;;;;;;;5.53;2.70;;;25.60;54.50;25.30;97060.00;;;;5110134;28;20682;-84
2023/10/10 11:01:54;;;;;;;4.33;2.53;;;25.60;54.60;25.30;97060.00;;;;5111920;28;20213;-84
2023/10/10 11:04:42;;;;;;;7.00;3.30;;;25.70;54.10;25.40;97052.00;;;;5090339;28;20306;-84
2023/10/10 11:07:16;;;;;;;5.00;3.00;;;25.70;53.90;25.50;97055.00;;;;5091941;28;20277;-85
2023/10/10 11:09:52;;;;;;;3.37;2.50;;;25.80;53.90;25.50;97044.00;;;;5119819;27;20626;-85
2023/10/10 11:12:31;;;;;;;6.20;2.90;;;25.80;54.20;25.60;97045.00;;;;5110772;28;20658;-85
2023/10/10 11:15:07;;;;;;;5.33;2.80;;;25.80;53.90;25.60;97049.00;;;;5106489;28;20696;-84
2023/10/10 11:17:38;;;;;;;4.23;2.37;;;25.90;53.80;25.60;97042.00;;;;5103042;28;20207;-83
2023/10/10 11:20:29;;;;;;;6.47;2.80;;;25.90;54.10;25.70;97037.00;;;;5097889;28;20210;-83
2023/10/10 11:23:11;;;;;;;7.93;2.97;;;26.00;53.60;25.70;97035.00;;;;5109478;28;20202;-84
2023/10/10 11:25:46;;;;;;;6.47;3.30;;;26.00;53.60;25.70;97031.00;;;;5108534;28;20237;-84
2023/10/10 11:28:23;;;;;;;6.90;2.37;;;26.10;53.90;25.80;97031.00;;;;5112025;27;20209;-83
2023/10/10 11:30:58;;;;;;;4.00;2.53;;;26.10;53.70;25.80;97026.00;;;;5102632;28;20230;-84
2023/10/10 11:33:49;;;;;;;7.47;3.17;;;26.10;53.20;25.90;97027.00;;;;5093504;28;20202;-84
2023/10/10 11:36:29;;;;;;;5.87;2.90;;;26.20;53.60;25.90;97023.00;;;;5097191;28;20571;-84
2023/10/10 11:39:16;;;;;;;6.67;2.67;;;26.20;53.50;26.00;97025.00;;;;5099244;28;20732;-84
2023/10/10 11:41:46;;;;;;;8.40;3.00;;;26.30;52.80;26.00;97019.00;;;;5097743;28;20673;-84
2023/10/10 11:44:20;;;;;;;4.50;2.67;;;26.30;52.90;26.00;97022.00;;;;5109880;28;20218;-83
2023/10/10 11:46:56;;;;;;;4.83;2.40;;;26.30;52.80;26.00;97013.00;;;;5096741;28;20729;-84
2023/10/10 11:49:25;;;;;;;6.33;3.00;;;26.30;53.20;26.10;97008.00;;;;5097906;28;20659;-84
2023/10/10 11:51:53;;;;;;;6.60;2.70;;;26.40;53.10;26.10;97021.00;;;;5110359;28;20206;-84
2023/10/10 11:54:25;;;;;;;7.37;3.10;;;26.40;53.10;26.10;97012.00;;;;5106542;28;20215;-84
2023/10/10 11:56:52;;;;;;;8.70;2.90;;;26.40;52.70;26.10;96997.00;;;;5084356;28;20223;-84
2023/10/10 11:59:19;;;;;;;6.80;2.43;;;26.40;52.30;26.10;97003.00;;;;5098264;28;20286;-85
2023/10/10 12:01:54;;;;;;;12.77;3.77;;;26.40;52.40;26.10;97000.00;;;;5101314;28;20396;-84
2023/10/10 12:04:30;;;;;;;6.27;3.03;;;26.50;52.20;26.10;97000.00;;;;5111993;28;20228;-85
2023/10/10 12:06:59;;;;;;;5.90;2.57;;;26.50;52.50;26.10;96993.00;;;;5114414;28;20741;-85
2023/10/10 12:09:30;;;;;;;3.67;2.85;;;26.50;52.60;26.20;97000.00;;;;5112164;28;20275;-85
2023/10/10 12:12:02;;;;;;;3.72;2.38;;;26.50;52.50;26.20;96993.00;;;;5100828;27;20213;-85
2023/10/10 12:14:35;;;;;;;5.30;2.33;;;26.50;52.40;26.20;96985.00;;;;5102142;28;20203;-85
2023/10/10 12:17:05;;;;;;;4.77;2.33;;;26.60;52.30;26.20;96998.00;;;;5110932;28;20293;-83
2023/10/10 12:19:38;;;;;;;6.07;2.53;;;26.60;51.70;26.30;96992.00;;;;5110775;28;20199;-84
2023/10/10 12:22:10;;;;;;;5.17;2.57;;;26.60;51.40;26.30;96982.00;;;;5097232;28;20203;-84
2023/10/10 12:24:40;;;;;;;6.07;2.58;;;26.60;51.50;26.30;96990.00;;;;5093353;28;20225;-84
2023/10/10 12:27:08;;;;;;;4.78;2.42;;;26.60;51.30;26.40;96981.00;;;;5110450;28;20206;-84
2023/10/10 12:29:41;;;;;;;7.37;2.63;;;26.70;51.20;26.40;96978.00;;;;5113119;28;20212;-84
2023/10/10 12:32:15;;;;;;;5.80;2.30;;;26.70;50.80;26.50;96976.00;;;;5113686;28;20635;-84
2023/10/10 12:34:43;;;;;;;5.23;2.53;;;26.70;50.70;26.50;96979.00;;;;5100878;28;20673;-85
2023/10/10 12:37:15;;;;;;;6.27;2.57;;;26.80;50.80;26.50;96978.00;;;;5108941;28;20553;-84
2023/10/10 12:39:44;;;;;;;4.77;2.33;;;26.80;50.30;26.50;96979.00;;;;5100962;28;20203;-85
2023/10/10 12:42:11;;;;;;;5.82;2.50;;;26.80;50.10;26.60;96974.00;;;;5101604;28;20191;-84
2023/10/10 12:44:38;;;;;;;3.43;2.17;;;26.80;50.60;26.60;96965.00;;;;5097922;28;20219;-84
2023/10/10 12:47:07;;;;;;;4.25;2.10;;;26.90;49.90;26.60;96965.00;;;;5095174;28;20202;-85
2023/10/10 12:49:44;;;;;;;5.35;2.17;;;26.90;49.50;26.60;96968.00;;;;5089610;28;20196;-84
2023/10/10 12:52:12;;;;;;;3.27;2.70;;;26.90;49.50;26.70;96970.00;;;;5100231;28;20650;-84
2023/10/10 12:54:41;;;;;;;4.65;1.98;;;26.90;49.40;26.70;96963.00;;;;5105547;28;20204;-84
2023/10/10 12:57:14;;;;;;;3.83;1.90;;;26.90;49.20;26.70;96956.00;;;;5099239;28;20202;-85
2023/10/10 12:59:46;;;;;;;3.65;2.33;;;26.90;49.40;26.70;96960.00;;;;5109490;28;20198;-85
2023/10/10 13:02:16;;;;;;;4.38;2.22;;;27.00;49.70;26.70;96951.00;;;;5104581;28;20205;-85
2023/10/10 13:04:46;;;;;;;3.58;2.13;;;27.00;49.70;26.70;96956.00;;;;5113342;28;20567;-85
2023/10/10 13:07:16;;;;;;;5.30;2.30;;;27.00;49.70;26.70;96964.00;;;;5109799;28;20202;-84
2023/10/10 13:09:46;;;;;;;6.20;2.63;;;27.00;48.80;26.70;96956.00;;;;5110772;28;20198;-85
2023/10/10 13:12:32;;;;;;;4.70;2.20;;;27.10;48.80;26.80;96953.00;;;;5109971;28;20218;-84
2023/10/10 13:15:17;;;;;;;4.97;2.50;;;27.00;48.30;26.80;96954.00;;;;5107838;28;20250;-84
2023/10/10 13:17:53;;;;;;;3.15;2.33;;;27.10;48.60;26.80;96959.00;;;;5107486;28;20217;-85
2023/10/10 13:20:22;;;;;;;4.20;2.27;;;27.10;48.00;26.90;96952.00;;;;5101184;28;20198;-86
2023/10/10 13:22:50;;;;;;;4.68;2.30;;;27.10;47.80;26.90;96953.00;;;;5106276;28;20206;-85
2023/10/10 13:25:20;;;;;;;4.05;2.40;;;27.20;47.90;26.90;96951.00;;;;5092753;28;20223;-85
2023/10/10 13:27:52;;;;;;;3.70;2.25;;;27.20;47.60;26.90;96956.00;;;;5101511;28;20653;-86